sensor_id;sensor_type;location;lat;lon;timestamp;P1;durP1;ratioP1;P2;durP2;ratioP2
39176;SDS011;24904;52.208;21.192;2023-01-19T00:00:40;29.50;;;19.10;;
39176;SDS011;24904;52.208;21.192;2023-01-19T00:05:45;32.00;;;21.30;;
39176;SDS011;24904;52.208;21.192;2023-01-19T00:10:50;34.50;;;22.00;;
39176;SDS011;24904;52.208;21.192;2023-01-19T00:15:55;39.30;;;24.50;;
39176;SDS011;24904;52.208;21.192;2023-01-19T00:21:00;32.90;;;22.40;;
39176;SDS011;24904;52.208;21.192;2023-01-19T00:26:05;37.20;;;23.70;;
39176;SDS011;24904;52.208;21.192;2023-01-19T00:31:11;40.20;;;22.60;;
39176;SDS011;24904;52.208;21.192;2023-01-19T00:36:16;35.40;;;20.70;;
39176;SDS011;24904;52.208;21.192;2023-01-19T00:41:21;36.90;;;21.80;;
39176;SDS011;24904;52.208;21.192;2023-01-19T00:46:40;39.10;;;23.10;;
39176;SDS011;24904;52.208;21.192;2023-01-19T00:51:45;33.50;;;21.80;;
39176;SDS011;24904;52.208;21.192;2023-01-19T00:56:50;32.60;;;20.00;;
39176;SDS011;24904;52.208;21.192;2023-01-19T01:01:55;33.10;;;20.40;;
39176;SDS011;24904;52.208;21.192;2023-01-19T01:07:00;34.60;;;20.50;;
39176;SDS011;24904;52.208;21.192;2023-01-19T01:12:06;33.60;;;21.60;;
39176;SDS011;24904;52.208;21.192;2023-01-19T01:17:11;35.30;;;21.50;;
39176;SDS011;24904;52.208;21.192;2023-01-19T01:22:16;34.90;;;21.10;;
39176;SDS011;24904;52.208;21.192;2023-01-19T01:27:21;35.80;;;22.00;;
39176;SDS011;24904;52.208;21.192;2023-01-19T01:32:26;30.10;;;19.70;;
39176;SDS011;24904;52.208;21.192;2023-01-19T01:37:31;33.20;;;21.30;;
39176;SDS011;24904;52.208;21.192;2023-01-19T01:42:36;35.80;;;22.00;;
39176;SDS011;24904;52.208;21.192;2023-01-19T01:47:43;32.90;;;20.80;;
39176;SDS011;24904;52.208;21.192;2023-01-19T01:52:51;34.40;;;21.40;;
39176;SDS011;24904;52.208;21.192;2023-01-19T01:57:58;34.90;;;21.30;;
39176;SDS011;24904;52.208;21.192;2023-01-19T02:03:05;34.30;;;21.80;;
39176;SDS011;24904;52.208;21.192;2023-01-19T02:08:11;35.00;;;20.80;;
39176;SDS011;24904;52.208;21.192;2023-01-19T02:13:39;34.50;;;20.70;;
39176;SDS011;24904;52.208;21.192;2023-01-19T02:18:45;31.90;;;20.70;;
39176;SDS011;24904;52.208;21.192;2023-01-19T02:23:51;35.40;;;21.80;;
39176;SDS011;24904;52.208;21.192;2023-01-19T02:28:58;35.60;;;20.60;;
39176;SDS011;24904;52.208;21.192;2023-01-19T02:34:05;33.60;;;20.30;;
39176;SDS011;24904;52.208;21.192;2023-01-19T02:39:11;36.00;;;21.20;;
39176;SDS011;24904;52.208;21.192;2023-01-19T02:44:21;32.50;;;20.80;;
39176;SDS011;24904;52.208;21.192;2023-01-19T02:49:28;35.70;;;21.70;;
39176;SDS011;24904;52.208;21.192;2023-01-19T02:54:36;35.60;;;21.10;;
39176;SDS011;24904;52.208;21.192;2023-01-19T02:59:56;35.30;;;20.50;;
39176;SDS011;24904;52.208;21.192;2023-01-19T03:05:17;35.20;;;21.40;;
39176;SDS011;24904;52.208;21.192;2023-01-19T03:10:42;34.00;;;20.40;;
39176;SDS011;24904;52.208;21.192;2023-01-19T03:15:56;33.80;;;20.30;;
39176;SDS011;24904;52.208;21.192;2023-01-19T03:21:07;33.40;;;21.20;;
39176;SDS011;24904;52.208;21.192;2023-01-19T03:26:17;36.60;;;20.80;;
39176;SDS011;24904;52.208;21.192;2023-01-19T03:31:26;33.50;;;20.40;;
39176;SDS011;24904;52.208;21.192;2023-01-19T03:36:35;36.20;;;21.90;;
39176;SDS011;24904;52.208;21.192;2023-01-19T03:41:44;35.80;;;21.10;;
39176;SDS011;24904;52.208;21.192;2023-01-19T03:46:54;32.30;;;20.10;;
39176;SDS011;24904;52.208;21.192;2023-01-19T03:52:01;32.10;;;20.30;;
39176;SDS011;24904;52.208;21.192;2023-01-19T03:57:06;33.60;;;21.50;;
39176;SDS011;24904;52.208;21.192;2023-01-19T04:02:11;36.70;;;21.10;;
39176;SDS011;24904;52.208;21.192;2023-01-19T04:07:16;36.80;;;21.00;;
39176;SDS011;24904;52.208;21.192;2023-01-19T04:12:21;32.70;;;20.30;;
39176;SDS011;24904;52.208;21.192;2023-01-19T04:17:26;32.30;;;19.40;;
39176;SDS011;24904;52.208;21.192;2023-01-19T04:22:31;31.30;;;19.30;;
39176;SDS011;24904;52.208;21.192;2023-01-19T04:27:36;32.60;;;20.90;;
39176;SDS011;24904;52.208;21.192;2023-01-19T04:32:41;33.70;;;20.10;;
39176;SDS011;24904;52.208;21.192;2023-01-19T04:37:46;32.10;;;19.30;;
39176;SDS011;24904;52.208;21.192;2023-01-19T04:42:51;33.70;;;20.00;;
39176;SDS011;24904;52.208;21.192;2023-01-19T04:47:56;31.50;;;19.50;;
39176;SDS011;24904;52.208;21.192;2023-01-19T04:53:01;27.10;;;17.20;;
39176;SDS011;24904;52.208;21.192;2023-01-19T04:58:06;32.20;;;18.60;;
39176;SDS011;24904;52.208;21.192;2023-01-19T05:03:11;30.30;;;19.20;;
39176;SDS011;24904;52.208;21.192;2023-01-19T05:08:16;29.90;;;18.20;;
39176;SDS011;24904;52.208;21.192;2023-01-19T05:13:22;28.80;;;19.70;;
39176;SDS011;24904;52.208;21.192;2023-01-19T05:18:27;32.50;;;19.70;;
39176;SDS011;24904;52.208;21.192;2023-01-19T05:28:39;30.30;;;17.60;;
39176;SDS011;24904;52.208;21.192;2023-01-19T05:33:44;30.40;;;19.60;;
39176;SDS011;24904;52.208;21.192;2023-01-19T05:38:50;28.80;;;18.50;;
39176;SDS011;24904;52.208;21.192;2023-01-19T05:43:55;31.40;;;18.90;;
39176;SDS011;24904;52.208;21.192;2023-01-19T05:49:00;33.60;;;19.20;;
39176;SDS011;24904;52.208;21.192;2023-01-19T05:54:06;32.20;;;18.80;;
39176;SDS011;24904;52.208;21.192;2023-01-19T05:59:11;30.20;;;18.80;;
39176;SDS011;24904;52.208;21.192;2023-01-19T06:04:18;29.10;;;18.60;;
39176;SDS011;24904;52.208;21.192;2023-01-19T06:09:23;27.90;;;17.00;;
39176;SDS011;24904;52.208;21.192;2023-01-19T06:14:28;27.00;;;18.20;;
39176;SDS011;24904;52.208;21.192;2023-01-19T06:19:34;32.90;;;19.50;;
39176;SDS011;24904;52.208;21.192;2023-01-19T06:24:39;28.50;;;17.70;;
39176;SDS011;24904;52.208;21.192;2023-01-19T06:29:44;28.70;;;17.40;;
39176;SDS011;24904;52.208;21.192;2023-01-19T06:34:49;27.40;;;15.60;;
39176;SDS011;24904;52.208;21.192;2023-01-19T06:39:54;30.20;;;17.10;;
39176;SDS011;24904;52.208;21.192;2023-01-19T06:44:59;25.40;;;16.50;;
39176;SDS011;24904;52.208;21.192;2023-01-19T06:50:04;23.60;;;15.40;;
39176;SDS011;24904;52.208;21.192;2023-01-19T06:55:10;25.70;;;16.10;;
39176;SDS011;24904;52.208;21.192;2023-01-19T07:00:17;26.50;;;15.90;;
39176;SDS011;24904;52.208;21.192;2023-01-19T07:05:23;29.00;;;16.60;;
39176;SDS011;24904;52.208;21.192;2023-01-19T07:10:28;45.80;;;16.10;;
39176;SDS011;24904;52.208;21.192;2023-01-19T07:15:33;25.50;;;15.40;;
39176;SDS011;24904;52.208;21.192;2023-01-19T07:20:38;25.90;;;17.10;;
39176;SDS011;24904;52.208;21.192;2023-01-19T07:25:45;22.70;;;15.10;;
39176;SDS011;24904;52.208;21.192;2023-01-19T07:30:51;24.10;;;14.70;;
39176;SDS011;24904;52.208;21.192;2023-01-19T07:35:57;24.10;;;15.50;;
39176;SDS011;24904;52.208;21.192;2023-01-19T07:41:02;24.10;;;14.80;;
39176;SDS011;24904;52.208;21.192;2023-01-19T07:46:08;27.90;;;15.70;;
39176;SDS011;24904;52.208;21.192;2023-01-19T07:51:13;26.00;;;15.00;;
39176;SDS011;24904;52.208;21.192;2023-01-19T07:56:19;26.20;;;15.60;;
39176;SDS011;24904;52.208;21.192;2023-01-19T08:01:25;22.80;;;15.60;;
39176;SDS011;24904;52.208;21.192;2023-01-19T08:06:31;27.20;;;16.00;;
39176;SDS011;24904;52.208;21.192;2023-01-19T08:11:39;25.80;;;15.60;;
39176;SDS011;24904;52.208;21.192;2023-01-19T08:16:44;25.50;;;15.70;;
39176;SDS011;24904;52.208;21.192;2023-01-19T08:21:49;28.00;;;16.20;;
39176;SDS011;24904;52.208;21.192;2023-01-19T08:26:58;25.10;;;15.40;;
39176;SDS011;24904;52.208;21.192;2023-01-19T08:32:04;26.60;;;15.90;;
39176;SDS011;24904;52.208;21.192;2023-01-19T08:37:09;26.80;;;16.80;;
39176;SDS011;24904;52.208;21.192;2023-01-19T08:42:14;29.20;;;17.90;;
39176;SDS011;24904;52.208;21.192;2023-01-19T08:47:19;31.30;;;15.50;;
39176;SDS011;24904;52.208;21.192;2023-01-19T08:52:24;29.80;;;17.80;;
39176;SDS011;24904;52.208;21.192;2023-01-19T08:57:30;29.50;;;18.50;;
39176;SDS011;24904;52.208;21.192;2023-01-19T09:02:35;29.50;;;17.90;;
39176;SDS011;24904;52.208;21.192;2023-01-19T09:07:40;29.30;;;17.00;;
39176;SDS011;24904;52.208;21.192;2023-01-19T09:12:46;28.30;;;17.60;;
39176;SDS011;24904;52.208;21.192;2023-01-19T09:17:52;31.40;;;19.10;;
39176;SDS011;24904;52.208;21.192;2023-01-19T09:22:57;34.70;;;20.10;;
39176;SDS011;24904;52.208;21.192;2023-01-19T09:28:02;34.00;;;19.70;;
39176;SDS011;24904;52.208;21.192;2023-01-19T09:33:10;30.60;;;18.10;;
39176;SDS011;24904;52.208;21.192;2023-01-19T09:38:17;27.80;;;17.70;;
39176;SDS011;24904;52.208;21.192;2023-01-19T09:43:28;26.50;;;16.80;;
39176;SDS011;24904;52.208;21.192;2023-01-19T09:48:43;31.80;;;19.30;;
39176;SDS011;24904;52.208;21.192;2023-01-19T09:53:52;27.90;;;17.10;;
39176;SDS011;24904;52.208;21.192;2023-01-19T09:59:09;26.30;;;16.00;;
39176;SDS011;24904;52.208;21.192;2023-01-19T10:04:33;25.40;;;15.90;;
39176;SDS011;24904;52.208;21.192;2023-01-19T10:09:45;28.70;;;17.00;;
39176;SDS011;24904;52.208;21.192;2023-01-19T10:15:00;25.20;;;16.50;;
39176;SDS011;24904;52.208;21.192;2023-01-19T10:20:15;30.40;;;19.60;;
39176;SDS011;24904;52.208;21.192;2023-01-19T10:25:28;30.10;;;18.00;;
39176;SDS011;24904;52.208;21.192;2023-01-19T10:30:34;24.90;;;16.60;;
39176;SDS011;24904;52.208;21.192;2023-01-19T10:35:39;26.80;;;15.70;;
39176;SDS011;24904;52.208;21.192;2023-01-19T10:40:47;29.10;;;17.70;;
39176;SDS011;24904;52.208;21.192;2023-01-19T10:45:58;27.20;;;17.20;;
39176;SDS011;24904;52.208;21.192;2023-01-19T10:51:04;25.50;;;14.40;;
39176;SDS011;24904;52.208;21.192;2023-01-19T10:56:14;27.80;;;16.40;;
39176;SDS011;24904;52.208;21.192;2023-01-19T11:01:24;29.30;;;16.90;;
39176;SDS011;24904;52.208;21.192;2023-01-19T11:06:31;35.70;;;16.50;;
39176;SDS011;24904;52.208;21.192;2023-01-19T11:11:41;26.10;;;17.20;;
39176;SDS011;24904;52.208;21.192;2023-01-19T11:16:50;30.50;;;17.60;;
39176;SDS011;24904;52.208;21.192;2023-01-19T11:22:08;35.20;;;17.70;;
39176;SDS011;24904;52.208;21.192;2023-01-19T11:27:22;30.80;;;18.30;;
39176;SDS011;24904;52.208;21.192;2023-01-19T11:32:28;27.70;;;16.40;;
39176;SDS011;24904;52.208;21.192;2023-01-19T11:37:34;30.10;;;18.10;;
39176;SDS011;24904;52.208;21.192;2023-01-19T11:42:42;27.10;;;17.20;;
39176;SDS011;24904;52.208;21.192;2023-01-19T11:47:47;28.70;;;17.70;;
39176;SDS011;24904;52.208;21.192;2023-01-19T11:52:54;31.50;;;18.30;;
39176;SDS011;24904;52.208;21.192;2023-01-19T11:58:02;29.50;;;17.10;;
39176;SDS011;24904;52.208;21.192;2023-01-19T12:03:09;30.10;;;17.70;;
39176;SDS011;24904;52.208;21.192;2023-01-19T12:08:22;29.80;;;16.70;;
39176;SDS011;24904;52.208;21.192;2023-01-19T12:13:30;31.40;;;16.90;;
39176;SDS011;24904;52.208;21.192;2023-01-19T12:18:39;26.90;;;16.80;;
39176;SDS011;24904;52.208;21.192;2023-01-19T12:23:50;27.40;;;17.30;;
39176;SDS011;24904;52.208;21.192;2023-01-19T12:29:04;28.90;;;17.80;;
39176;SDS011;24904;52.208;21.192;2023-01-19T12:39:54;28.60;;;16.50;;
39176;SDS011;24904;52.208;21.192;2023-01-19T12:45:10;26.70;;;17.00;;
39176;SDS011;24904;52.208;21.192;2023-01-19T12:50:19;25.20;;;16.20;;
39176;SDS011;24904;52.208;21.192;2023-01-19T12:55:27;32.60;;;18.70;;
39176;SDS011;24904;52.208;21.192;2023-01-19T13:00:35;30.00;;;18.10;;
39176;SDS011;24904;52.208;21.192;2023-01-19T13:22:04;33.00;;;18.60;;
39176;SDS011;24904;52.208;21.192;2023-01-19T13:27:46;31.80;;;17.70;;
39176;SDS011;24904;52.208;21.192;2023-01-19T13:32:51;28.40;;;17.50;;
39176;SDS011;24904;52.208;21.192;2023-01-19T13:37:58;29.50;;;17.50;;
39176;SDS011;24904;52.208;21.192;2023-01-19T13:43:03;29.80;;;17.80;;
39176;SDS011;24904;52.208;21.192;2023-01-19T13:48:17;27.30;;;16.60;;
39176;SDS011;24904;52.208;21.192;2023-01-19T13:53:24;33.40;;;18.10;;
39176;SDS011;24904;52.208;21.192;2023-01-19T13:58:30;29.30;;;18.30;;
39176;SDS011;24904;52.208;21.192;2023-01-19T14:03:35;30.60;;;18.50;;
39176;SDS011;24904;52.208;21.192;2023-01-19T14:08:42;28.30;;;16.30;;
39176;SDS011;24904;52.208;21.192;2023-01-19T14:13:47;31.00;;;16.70;;
39176;SDS011;24904;52.208;21.192;2023-01-19T14:18:58;28.40;;;16.50;;
39176;SDS011;24904;52.208;21.192;2023-01-19T14:24:08;29.20;;;16.90;;
39176;SDS011;24904;52.208;21.192;2023-01-19T14:29:23;28.60;;;17.50;;
39176;SDS011;24904;52.208;21.192;2023-01-19T14:34:31;25.90;;;16.70;;
39176;SDS011;24904;52.208;21.192;2023-01-19T14:39:42;28.70;;;17.60;;
39176;SDS011;24904;52.208;21.192;2023-01-19T14:44:49;28.50;;;15.40;;
39176;SDS011;24904;52.208;21.192;2023-01-19T14:49:56;24.60;;;14.30;;
39176;SDS011;24904;52.208;21.192;2023-01-19T14:55:14;24.90;;;14.60;;
39176;SDS011;24904;52.208;21.192;2023-01-19T15:00:22;23.00;;;14.10;;
39176;SDS011;24904;52.208;21.192;2023-01-19T15:05:27;22.40;;;13.80;;
39176;SDS011;24904;52.208;21.192;2023-01-19T15:10:32;20.80;;;13.00;;
39176;SDS011;24904;52.208;21.192;2023-01-19T15:15:38;22.30;;;13.20;;
39176;SDS011;24904;52.208;21.192;2023-01-19T15:20:43;20.70;;;13.10;;
39176;SDS011;24904;52.208;21.192;2023-01-19T15:25:49;22.30;;;12.80;;
39176;SDS011;24904;52.208;21.192;2023-01-19T15:30:54;24.10;;;14.30;;
39176;SDS011;24904;52.208;21.192;2023-01-19T15:36:00;23.40;;;13.10;;
39176;SDS011;24904;52.208;21.192;2023-01-19T15:41:09;21.60;;;13.60;;
39176;SDS011;24904;52.208;21.192;2023-01-19T15:46:17;22.80;;;13.90;;
39176;SDS011;24904;52.208;21.192;2023-01-19T15:51:23;22.90;;;13.40;;
39176;SDS011;24904;52.208;21.192;2023-01-19T15:56:29;23.50;;;14.60;;
39176;SDS011;24904;52.208;21.192;2023-01-19T16:01:34;23.50;;;14.20;;
39176;SDS011;24904;52.208;21.192;2023-01-19T16:06:39;24.00;;;14.60;;
39176;SDS011;24904;52.208;21.192;2023-01-19T16:11:44;21.20;;;13.60;;
39176;SDS011;24904;52.208;21.192;2023-01-19T16:16:49;19.80;;;12.50;;
39176;SDS011;24904;52.208;21.192;2023-01-19T16:21:54;22.70;;;14.10;;
39176;SDS011;24904;52.208;21.192;2023-01-19T16:26:59;19.50;;;11.80;;
39176;SDS011;24904;52.208;21.192;2023-01-19T16:32:04;20.20;;;12.20;;
39176;SDS011;24904;52.208;21.192;2023-01-19T16:37:09;19.20;;;12.20;;
39176;SDS011;24904;52.208;21.192;2023-01-19T16:42:15;18.60;;;11.70;;
39176;SDS011;24904;52.208;21.192;2023-01-19T16:47:20;22.80;;;11.10;;
39176;SDS011;24904;52.208;21.192;2023-01-19T16:52:25;17.50;;;10.80;;
39176;SDS011;24904;52.208;21.192;2023-01-19T16:57:30;17.10;;;10.40;;
39176;SDS011;24904;52.208;21.192;2023-01-19T17:02:35;19.30;;;12.20;;
39176;SDS011;24904;52.208;21.192;2023-01-19T17:07:40;16.60;;;10.90;;
39176;SDS011;24904;52.208;21.192;2023-01-19T17:12:45;17.20;;;9.90;;
39176;SDS011;24904;52.208;21.192;2023-01-19T17:17:50;14.30;;;10.20;;
39176;SDS011;24904;52.208;21.192;2023-01-19T17:22:55;20.40;;;10.80;;
39176;SDS011;24904;52.208;21.192;2023-01-19T17:28:00;19.80;;;11.40;;
39176;SDS011;24904;52.208;21.192;2023-01-19T17:33:05;16.90;;;11.10;;
39176;SDS011;24904;52.208;21.192;2023-01-19T17:38:10;18.60;;;11.30;;
39176;SDS011;24904;52.208;21.192;2023-01-19T17:43:15;18.00;;;11.20;;
39176;SDS011;24904;52.208;21.192;2023-01-19T17:48:20;20.00;;;12.30;;
39176;SDS011;24904;52.208;21.192;2023-01-19T17:53:25;21.90;;;13.60;;
39176;SDS011;24904;52.208;21.192;2023-01-19T17:58:30;21.20;;;13.30;;
39176;SDS011;24904;52.208;21.192;2023-01-19T18:03:36;21.80;;;13.20;;
39176;SDS011;24904;52.208;21.192;2023-01-19T18:08:42;24.80;;;14.70;;
39176;SDS011;24904;52.208;21.192;2023-01-19T18:13:48;27.60;;;15.40;;
39176;SDS011;24904;52.208;21.192;2023-01-19T18:18:54;24.60;;;14.90;;
39176;SDS011;24904;52.208;21.192;2023-01-19T18:24:00;25.90;;;16.00;;
39176;SDS011;24904;52.208;21.192;2023-01-19T18:29:06;26.10;;;15.90;;
39176;SDS011;24904;52.208;21.192;2023-01-19T18:34:11;32.80;;;18.10;;
39176;SDS011;24904;52.208;21.192;2023-01-19T18:39:16;25.20;;;16.40;;
39176;SDS011;24904;52.208;21.192;2023-01-19T18:44:21;30.70;;;19.20;;
39176;SDS011;24904;52.208;21.192;2023-01-19T18:49:26;28.70;;;17.30;;
39176;SDS011;24904;52.208;21.192;2023-01-19T18:54:32;28.10;;;18.20;;
39176;SDS011;24904;52.208;21.192;2023-01-19T18:59:37;32.70;;;20.20;;
39176;SDS011;24904;52.208;21.192;2023-01-19T19:04:44;31.50;;;20.50;;
39176;SDS011;24904;52.208;21.192;2023-01-19T19:09:49;35.60;;;20.60;;
39176;SDS011;24904;52.208;21.192;2023-01-19T19:14:54;34.30;;;20.70;;
39176;SDS011;24904;52.208;21.192;2023-01-19T19:19:59;34.50;;;21.30;;
39176;SDS011;24904;52.208;21.192;2023-01-19T19:25:05;34.30;;;21.50;;
39176;SDS011;24904;52.208;21.192;2023-01-19T19:30:11;34.70;;;23.20;;
39176;SDS011;24904;52.208;21.192;2023-01-19T19:35:16;38.00;;;22.70;;
39176;SDS011;24904;52.208;21.192;2023-01-19T19:40:21;35.30;;;21.60;;
39176;SDS011;24904;52.208;21.192;2023-01-19T19:45:27;39.40;;;23.90;;
39176;SDS011;24904;52.208;21.192;2023-01-19T19:50:32;40.90;;;23.60;;
39176;SDS011;24904;52.208;21.192;2023-01-19T19:55:38;39.30;;;25.10;;
39176;SDS011;24904;52.208;21.192;2023-01-19T20:00:43;41.80;;;24.00;;
39176;SDS011;24904;52.208;21.192;2023-01-19T20:05:47;40.70;;;24.20;;
39176;SDS011;24904;52.208;21.192;2023-01-19T20:10:52;37.20;;;23.70;;
39176;SDS011;24904;52.208;21.192;2023-01-19T20:15:57;39.10;;;24.90;;
39176;SDS011;24904;52.208;21.192;2023-01-19T20:21:10;37.00;;;23.20;;
39176;SDS011;24904;52.208;21.192;2023-01-19T20:26:18;47.60;;;26.60;;
39176;SDS011;24904;52.208;21.192;2023-01-19T20:31:26;45.30;;;26.30;;
39176;SDS011;24904;52.208;21.192;2023-01-19T20:36:32;40.70;;;25.20;;
39176;SDS011;24904;52.208;21.192;2023-01-19T20:41:38;37.80;;;23.70;;
39176;SDS011;24904;52.208;21.192;2023-01-19T20:46:45;39.60;;;24.20;;
39176;SDS011;24904;52.208;21.192;2023-01-19T20:51:50;38.70;;;23.60;;
39176;SDS011;24904;52.208;21.192;2023-01-19T20:56:55;36.70;;;21.40;;
39176;SDS011;24904;52.208;21.192;2023-01-19T21:02:01;37.70;;;22.90;;
39176;SDS011;24904;52.208;21.192;2023-01-19T21:07:09;36.90;;;22.40;;
39176;SDS011;24904;52.208;21.192;2023-01-19T21:12:14;35.20;;;21.50;;
39176;SDS011;24904;52.208;21.192;2023-01-19T21:17:21;39.00;;;23.10;;
39176;SDS011;24904;52.208;21.192;2023-01-19T21:22:26;35.10;;;20.60;;
39176;SDS011;24904;52.208;21.192;2023-01-19T21:27:31;36.40;;;21.10;;
39176;SDS011;24904;52.208;21.192;2023-01-19T21:32:36;42.20;;;22.50;;
39176;SDS011;24904;52.208;21.192;2023-01-19T21:37:41;37.70;;;22.50;;
39176;SDS011;24904;52.208;21.192;2023-01-19T21:42:46;38.90;;;22.90;;
39176;SDS011;24904;52.208;21.192;2023-01-19T21:47:51;38.60;;;23.20;;
39176;SDS011;24904;52.208;21.192;2023-01-19T21:52:56;38.70;;;23.10;;
39176;SDS011;24904;52.208;21.192;2023-01-19T21:58:01;38.20;;;23.10;;
39176;SDS011;24904;52.208;21.192;2023-01-19T22:03:06;39.50;;;23.50;;
39176;SDS011;24904;52.208;21.192;2023-01-19T22:08:11;40.20;;;22.70;;
39176;SDS011;24904;52.208;21.192;2023-01-19T22:13:16;37.10;;;21.70;;
39176;SDS011;24904;52.208;21.192;2023-01-19T22:18:21;37.90;;;22.40;;
39176;SDS011;24904;52.208;21.192;2023-01-19T22:23:26;37.40;;;22.50;;
39176;SDS011;24904;52.208;21.192;2023-01-19T22:28:31;38.30;;;22.00;;
39176;SDS011;24904;52.208;21.192;2023-01-19T22:33:37;35.40;;;21.80;;
39176;SDS011;24904;52.208;21.192;2023-01-19T22:38:42;41.00;;;23.10;;
39176;SDS011;24904;52.208;21.192;2023-01-19T22:43:51;45.60;;;25.40;;
39176;SDS011;24904;52.208;21.192;2023-01-19T22:48:58;44.80;;;25.10;;
39176;SDS011;24904;52.208;21.192;2023-01-19T22:54:03;45.80;;;25.60;;
39176;SDS011;24904;52.208;21.192;2023-01-19T22:59:08;47.10;;;26.50;;
39176;SDS011;24904;52.208;21.192;2023-01-19T23:04:14;43.60;;;24.60;;
39176;SDS011;24904;52.208;21.192;2023-01-19T23:09:19;45.60;;;24.20;;
39176;SDS011;24904;52.208;21.192;2023-01-19T23:14:24;45.20;;;22.40;;
39176;SDS011;24904;52.208;21.192;2023-01-19T23:19:30;37.20;;;20.60;;
39176;SDS011;24904;52.208;21.192;2023-01-19T23:24:35;40.70;;;21.80;;
39176;SDS011;24904;52.208;21.192;2023-01-19T23:29:40;41.30;;;21.30;;
39176;SDS011;24904;52.208;21.192;2023-01-19T23:34:45;38.50;;;21.00;;
39176;SDS011;24904;52.208;21.192;2023-01-19T23:39:50;36.30;;;21.50;;
39176;SDS011;24904;52.208;21.192;2023-01-19T23:44:55;41.00;;;22.60;;
39176;SDS011;24904;52.208;21.192;2023-01-19T23:50:00;44.10;;;23.80;;
39176;SDS011;24904;52.208;21.192;2023-01-19T23:55:07;43.00;;;22.00;;
